sensor_id;sensor_type;location;lat;lon;timestamp;P1;durP1;ratioP1;P2;durP2;ratioP2
28028;SDS011;15345;59.364;18.016;2023-05-10T00:00:15;10.45;;;5.82;;
28028;SDS011;15345;59.364;18.016;2023-05-10T00:01:34;7.70;;;5.10;;
28028;SDS011;15345;59.364;18.016;2023-05-10T00:02:53;8.68;;;5.13;;
28028;SDS011;15345;59.364;18.016;2023-05-10T00:04:12;6.75;;;5.35;;
28028;SDS011;15345;59.364;18.016;2023-05-10T00:05:31;9.55;;;5.28;;
28028;SDS011;15345;59.364;18.016;2023-05-10T00:06:51;9.35;;;5.03;;
28028;SDS011;15345;59.364;18.016;2023-05-10T00:08:09;5.38;;;4.75;;
28028;SDS011;15345;59.364;18.016;2023-05-10T00:09:29;6.68;;;5.10;;
28028;SDS011;15345;59.364;18.016;2023-05-10T00:10:48;9.25;;;5.00;;
28028;SDS011;15345;59.364;18.016;2023-05-10T00:12:07;9.38;;;5.00;;
28028;SDS011;15345;59.364;18.016;2023-05-10T00:13:26;6.32;;;4.70;;
28028;SDS011;15345;59.364;18.016;2023-05-10T00:14:45;7.88;;;4.75;;
28028;SDS011;15345;59.364;18.016;2023-05-10T00:16:04;7.90;;;5.43;;
28028;SDS011;15345;59.364;18.016;2023-05-10T00:17:23;5.93;;;5.03;;
28028;SDS011;15345;59.364;18.016;2023-05-10T00:18:42;7.57;;;5.70;;
28028;SDS011;15345;59.364;18.016;2023-05-10T00:20:01;7.85;;;5.20;;
28028;SDS011;15345;59.364;18.016;2023-05-10T00:21:20;7.40;;;5.70;;
28028;SDS011;15345;59.364;18.016;2023-05-10T00:22:39;10.10;;;4.43;;
28028;SDS011;15345;59.364;18.016;2023-05-10T00:23:59;5.25;;;4.68;;
28028;SDS011;15345;59.364;18.016;2023-05-10T00:25:17;9.13;;;5.38;;
28028;SDS011;15345;59.364;18.016;2023-05-10T00:26:36;10.13;;;4.75;;
28028;SDS011;15345;59.364;18.016;2023-05-10T00:27:55;6.30;;;5.25;;
28028;SDS011;15345;59.364;18.016;2023-05-10T00:29:15;9.52;;;5.70;;
28028;SDS011;15345;59.364;18.016;2023-05-10T00:30:34;6.68;;;4.97;;
28028;SDS011;15345;59.364;18.016;2023-05-10T00:31:53;9.07;;;5.50;;
28028;SDS011;15345;59.364;18.016;2023-05-10T00:33:12;6.50;;;5.10;;
28028;SDS011;15345;59.364;18.016;2023-05-10T00:34:31;8.70;;;5.50;;
28028;SDS011;15345;59.364;18.016;2023-05-10T00:35:50;6.28;;;4.97;;
28028;SDS011;15345;59.364;18.016;2023-05-10T00:37:09;8.70;;;4.90;;
28028;SDS011;15345;59.364;18.016;2023-05-10T00:38:28;6.43;;;5.15;;
28028;SDS011;15345;59.364;18.016;2023-05-10T00:39:47;6.93;;;5.00;;
28028;SDS011;15345;59.364;18.016;2023-05-10T00:41:06;6.95;;;5.43;;
28028;SDS011;15345;59.364;18.016;2023-05-10T00:42:25;7.25;;;4.65;;
28028;SDS011;15345;59.364;18.016;2023-05-10T00:43:43;8.48;;;5.35;;
28028;SDS011;15345;59.364;18.016;2023-05-10T00:45:03;9.43;;;5.00;;
28028;SDS011;15345;59.364;18.016;2023-05-10T00:46:22;10.63;;;5.15;;
28028;SDS011;15345;59.364;18.016;2023-05-10T00:47:41;5.32;;;4.85;;
28028;SDS011;15345;59.364;18.016;2023-05-10T00:49:00;9.32;;;5.97;;
28028;SDS011;15345;59.364;18.016;2023-05-10T00:50:19;11.77;;;5.90;;
28028;SDS011;15345;59.364;18.016;2023-05-10T00:51:38;12.73;;;5.00;;
28028;SDS011;15345;59.364;18.016;2023-05-10T00:52:57;7.50;;;5.85;;
28028;SDS011;15345;59.364;18.016;2023-05-10T00:54:16;10.82;;;6.03;;
28028;SDS011;15345;59.364;18.016;2023-05-10T00:55:35;6.40;;;4.75;;
28028;SDS011;15345;59.364;18.016;2023-05-10T00:56:55;9.68;;;5.47;;
28028;SDS011;15345;59.364;18.016;2023-05-10T00:58:15;5.63;;;5.10;;
28028;SDS011;15345;59.364;18.016;2023-05-10T00:59:34;7.82;;;5.60;;
28028;SDS011;15345;59.364;18.016;2023-05-10T01:00:54;7.53;;;5.40;;
28028;SDS011;15345;59.364;18.016;2023-05-10T01:02:13;6.38;;;5.03;;
28028;SDS011;15345;59.364;18.016;2023-05-10T01:03:33;7.65;;;4.93;;
28028;SDS011;15345;59.364;18.016;2023-05-10T01:04:52;6.60;;;5.30;;
28028;SDS011;15345;59.364;18.016;2023-05-10T01:06:11;6.95;;;5.20;;
28028;SDS011;15345;59.364;18.016;2023-05-10T01:07:29;11.00;;;6.13;;
28028;SDS011;15345;59.364;18.016;2023-05-10T01:08:48;6.25;;;4.82;;
28028;SDS011;15345;59.364;18.016;2023-05-10T01:10:08;6.50;;;5.35;;
28028;SDS011;15345;59.364;18.016;2023-05-10T01:11:27;7.22;;;5.50;;
28028;SDS011;15345;59.364;18.016;2023-05-10T01:12:47;6.68;;;5.10;;
28028;SDS011;15345;59.364;18.016;2023-05-10T01:14:06;7.93;;;5.15;;
28028;SDS011;15345;59.364;18.016;2023-05-10T01:15:25;8.82;;;5.40;;
28028;SDS011;15345;59.364;18.016;2023-05-10T01:16:44;6.63;;;5.45;;
28028;SDS011;15345;59.364;18.016;2023-05-10T01:18:04;6.50;;;5.50;;
28028;SDS011;15345;59.364;18.016;2023-05-10T01:19:25;5.95;;;5.38;;
28028;SDS011;15345;59.364;18.016;2023-05-10T01:20:44;6.70;;;5.40;;
28028;SDS011;15345;59.364;18.016;2023-05-10T01:23:59;11.00;;;5.85;;
28028;SDS011;15345;59.364;18.016;2023-05-10T01:33:35;9.18;;;5.82;;
28028;SDS011;15345;59.364;18.016;2023-05-10T01:36:58;6.45;;;4.78;;
28028;SDS011;15345;59.364;18.016;2023-05-10T01:39:06;7.03;;;5.47;;
28028;SDS011;15345;59.364;18.016;2023-05-10T01:40:00;9.85;;;5.78;;
28028;SDS011;15345;59.364;18.016;2023-05-10T01:41:28;5.65;;;5.10;;
28028;SDS011;15345;59.364;18.016;2023-05-10T01:42:53;9.32;;;5.30;;
28028;SDS011;15345;59.364;18.016;2023-05-10T01:44:29;10.82;;;5.88;;
28028;SDS011;15345;59.364;18.016;2023-05-10T01:47:10;6.65;;;5.72;;
28028;SDS011;15345;59.364;18.016;2023-05-10T01:48:29;7.05;;;5.40;;
28028;SDS011;15345;59.364;18.016;2023-05-10T01:49:49;7.95;;;5.25;;
28028;SDS011;15345;59.364;18.016;2023-05-10T01:51:08;6.03;;;4.70;;
28028;SDS011;15345;59.364;18.016;2023-05-10T01:52:38;6.78;;;5.75;;
28028;SDS011;15345;59.364;18.016;2023-05-10T01:54:00;6.55;;;5.38;;
28028;SDS011;15345;59.364;18.016;2023-05-10T01:55:20;8.35;;;5.65;;
28028;SDS011;15345;59.364;18.016;2023-05-10T01:56:41;13.15;;;6.20;;
28028;SDS011;15345;59.364;18.016;2023-05-10T01:58:04;6.78;;;5.88;;
28028;SDS011;15345;59.364;18.016;2023-05-10T01:59:24;8.88;;;5.90;;
28028;SDS011;15345;59.364;18.016;2023-05-10T02:00:46;10.18;;;6.03;;
28028;SDS011;15345;59.364;18.016;2023-05-10T02:02:05;6.88;;;6.20;;
28028;SDS011;15345;59.364;18.016;2023-05-10T02:03:25;6.72;;;6.05;;
28028;SDS011;15345;59.364;18.016;2023-05-10T02:04:45;6.65;;;5.50;;
28028;SDS011;15345;59.364;18.016;2023-05-10T02:06:05;10.23;;;6.15;;
28028;SDS011;15345;59.364;18.016;2023-05-10T02:07:24;7.43;;;5.03;;
28028;SDS011;15345;59.364;18.016;2023-05-10T02:08:44;8.93;;;5.10;;
28028;SDS011;15345;59.364;18.016;2023-05-10T02:10:05;8.70;;;5.78;;
28028;SDS011;15345;59.364;18.016;2023-05-10T02:11:25;9.15;;;5.40;;
28028;SDS011;15345;59.364;18.016;2023-05-10T02:12:46;10.20;;;6.10;;
28028;SDS011;15345;59.364;18.016;2023-05-10T02:14:07;8.50;;;5.68;;
28028;SDS011;15345;59.364;18.016;2023-05-10T02:15:26;9.13;;;5.32;;
28028;SDS011;15345;59.364;18.016;2023-05-10T02:16:46;6.50;;;5.75;;
28028;SDS011;15345;59.364;18.016;2023-05-10T02:18:06;6.93;;;5.82;;
28028;SDS011;15345;59.364;18.016;2023-05-10T02:19:28;7.18;;;5.63;;
28028;SDS011;15345;59.364;18.016;2023-05-10T02:20:47;11.18;;;5.97;;
28028;SDS011;15345;59.364;18.016;2023-05-10T02:22:06;7.75;;;5.50;;
28028;SDS011;15345;59.364;18.016;2023-05-10T02:23:26;8.00;;;5.78;;
28028;SDS011;15345;59.364;18.016;2023-05-10T02:24:46;12.65;;;5.90;;
28028;SDS011;15345;59.364;18.016;2023-05-10T02:26:06;7.45;;;5.72;;
28028;SDS011;15345;59.364;18.016;2023-05-10T02:27:27;8.55;;;5.60;;
28028;SDS011;15345;59.364;18.016;2023-05-10T02:28:46;7.35;;;5.90;;
28028;SDS011;15345;59.364;18.016;2023-05-10T02:30:06;10.18;;;6.32;;
28028;SDS011;15345;59.364;18.016;2023-05-10T02:31:26;8.35;;;5.57;;
28028;SDS011;15345;59.364;18.016;2023-05-10T02:32:45;9.13;;;6.53;;
28028;SDS011;15345;59.364;18.016;2023-05-10T02:34:05;9.65;;;6.28;;
28028;SDS011;15345;59.364;18.016;2023-05-10T02:35:26;8.05;;;6.22;;
28028;SDS011;15345;59.364;18.016;2023-05-10T02:36:45;9.23;;;6.05;;
28028;SDS011;15345;59.364;18.016;2023-05-10T02:38:05;7.95;;;5.85;;
28028;SDS011;15345;59.364;18.016;2023-05-10T02:39:25;7.80;;;6.05;;
28028;SDS011;15345;59.364;18.016;2023-05-10T02:40:45;10.13;;;5.72;;
28028;SDS011;15345;59.364;18.016;2023-05-10T02:42:04;10.80;;;5.93;;
28028;SDS011;15345;59.364;18.016;2023-05-10T02:43:23;11.95;;;6.00;;
28028;SDS011;15345;59.364;18.016;2023-05-10T02:44:43;6.45;;;5.85;;
28028;SDS011;15345;59.364;18.016;2023-05-10T02:46:04;8.32;;;5.25;;
28028;SDS011;15345;59.364;18.016;2023-05-10T02:47:23;7.50;;;5.78;;
28028;SDS011;15345;59.364;18.016;2023-05-10T02:48:42;7.75;;;6.05;;
28028;SDS011;15345;59.364;18.016;2023-05-10T02:50:01;8.55;;;5.90;;
28028;SDS011;15345;59.364;18.016;2023-05-10T02:51:20;8.25;;;6.28;;
28028;SDS011;15345;59.364;18.016;2023-05-10T02:52:44;10.43;;;6.72;;
28028;SDS011;15345;59.364;18.016;2023-05-10T02:54:07;9.00;;;6.00;;
28028;SDS011;15345;59.364;18.016;2023-05-10T02:55:31;8.25;;;5.88;;
28028;SDS011;15345;59.364;18.016;2023-05-10T02:56:52;10.25;;;6.40;;
28028;SDS011;15345;59.364;18.016;2023-05-10T02:58:12;7.80;;;5.88;;
28028;SDS011;15345;59.364;18.016;2023-05-10T02:59:31;8.85;;;6.15;;
28028;SDS011;15345;59.364;18.016;2023-05-10T03:00:51;8.07;;;6.00;;
28028;SDS011;15345;59.364;18.016;2023-05-10T03:02:10;10.85;;;6.00;;
28028;SDS011;15345;59.364;18.016;2023-05-10T03:03:30;10.30;;;6.38;;
28028;SDS011;15345;59.364;18.016;2023-05-10T03:04:49;7.10;;;5.47;;
28028;SDS011;15345;59.364;18.016;2023-05-10T03:06:08;10.85;;;6.22;;
28028;SDS011;15345;59.364;18.016;2023-05-10T03:07:26;10.82;;;5.90;;
28028;SDS011;15345;59.364;18.016;2023-05-10T03:08:45;9.25;;;6.50;;
28028;SDS011;15345;59.364;18.016;2023-05-10T03:10:04;12.00;;;6.93;;
28028;SDS011;15345;59.364;18.016;2023-05-10T03:14:23;10.50;;;6.45;;
28028;SDS011;15345;59.364;18.016;2023-05-10T03:18:50;14.55;;;6.13;;
28028;SDS011;15345;59.364;18.016;2023-05-10T03:20:09;12.70;;;5.95;;
28028;SDS011;15345;59.364;18.016;2023-05-10T03:21:30;15.57;;;5.72;;
28028;SDS011;15345;59.364;18.016;2023-05-10T03:22:51;14.90;;;6.25;;
28028;SDS011;15345;59.364;18.016;2023-05-10T03:24:11;11.15;;;6.68;;
28028;SDS011;15345;59.364;18.016;2023-05-10T03:25:31;11.68;;;5.97;;
28028;SDS011;15345;59.364;18.016;2023-05-10T03:26:50;13.82;;;6.70;;
28028;SDS011;15345;59.364;18.016;2023-05-10T03:28:12;11.13;;;6.90;;
28028;SDS011;15345;59.364;18.016;2023-05-10T03:29:31;16.80;;;7.03;;
28028;SDS011;15345;59.364;18.016;2023-05-10T03:30:51;19.17;;;5.85;;
28028;SDS011;15345;59.364;18.016;2023-05-10T03:32:11;14.20;;;6.07;;
28028;SDS011;15345;59.364;18.016;2023-05-10T03:33:30;10.68;;;6.15;;
28028;SDS011;15345;59.364;18.016;2023-05-10T03:34:49;16.05;;;6.70;;
28028;SDS011;15345;59.364;18.016;2023-05-10T03:36:08;13.57;;;6.18;;
28028;SDS011;15345;59.364;18.016;2023-05-10T03:37:27;12.20;;;6.25;;
28028;SDS011;15345;59.364;18.016;2023-05-10T03:38:46;12.52;;;6.53;;
28028;SDS011;15345;59.364;18.016;2023-05-10T03:40:06;11.88;;;6.68;;
28028;SDS011;15345;59.364;18.016;2023-05-10T03:41:25;14.38;;;6.40;;
28028;SDS011;15345;59.364;18.016;2023-05-10T03:42:44;12.05;;;7.00;;
28028;SDS011;15345;59.364;18.016;2023-05-10T03:44:03;14.70;;;5.93;;
28028;SDS011;15345;59.364;18.016;2023-05-10T03:45:22;11.88;;;6.15;;
28028;SDS011;15345;59.364;18.016;2023-05-10T03:46:41;17.20;;;6.45;;
28028;SDS011;15345;59.364;18.016;2023-05-10T03:48:00;13.50;;;6.70;;
28028;SDS011;15345;59.364;18.016;2023-05-10T03:49:19;12.35;;;6.13;;
28028;SDS011;15345;59.364;18.016;2023-05-10T03:50:38;13.30;;;6.38;;
28028;SDS011;15345;59.364;18.016;2023-05-10T03:51:57;14.65;;;6.72;;
28028;SDS011;15345;59.364;18.016;2023-05-10T03:53:16;16.25;;;6.72;;
28028;SDS011;15345;59.364;18.016;2023-05-10T03:54:35;11.77;;;6.50;;
28028;SDS011;15345;59.364;18.016;2023-05-10T03:55:54;11.70;;;6.85;;
28028;SDS011;15345;59.364;18.016;2023-05-10T03:57:13;15.07;;;6.28;;
28028;SDS011;15345;59.364;18.016;2023-05-10T03:58:32;14.98;;;6.78;;
28028;SDS011;15345;59.364;18.016;2023-05-10T03:59:51;10.73;;;6.43;;
28028;SDS011;15345;59.364;18.016;2023-05-10T04:01:10;11.32;;;5.85;;
28028;SDS011;15345;59.364;18.016;2023-05-10T04:02:30;9.93;;;6.25;;
28028;SDS011;15345;59.364;18.016;2023-05-10T04:03:49;13.45;;;6.47;;
28028;SDS011;15345;59.364;18.016;2023-05-10T04:05:08;11.18;;;5.72;;
28028;SDS011;15345;59.364;18.016;2023-05-10T04:06:27;12.90;;;6.15;;
28028;SDS011;15345;59.364;18.016;2023-05-10T04:07:46;9.10;;;6.10;;
28028;SDS011;15345;59.364;18.016;2023-05-10T04:09:05;31.02;;;5.90;;
28028;SDS011;15345;59.364;18.016;2023-05-10T04:10:24;10.00;;;5.85;;
28028;SDS011;15345;59.364;18.016;2023-05-10T04:11:43;14.07;;;6.05;;
28028;SDS011;15345;59.364;18.016;2023-05-10T04:13:02;11.23;;;6.07;;
28028;SDS011;15345;59.364;18.016;2023-05-10T04:14:21;12.52;;;6.22;;
28028;SDS011;15345;59.364;18.016;2023-05-10T04:15:40;11.10;;;5.45;;
28028;SDS011;15345;59.364;18.016;2023-05-10T04:16:58;13.25;;;5.80;;
28028;SDS011;15345;59.364;18.016;2023-05-10T04:18:17;9.90;;;6.00;;
28028;SDS011;15345;59.364;18.016;2023-05-10T04:19:36;13.15;;;5.32;;
28028;SDS011;15345;59.364;18.016;2023-05-10T04:20:55;13.93;;;6.32;;
28028;SDS011;15345;59.364;18.016;2023-05-10T04:22:14;16.17;;;6.70;;
28028;SDS011;15345;59.364;18.016;2023-05-10T04:23:33;12.00;;;5.30;;
28028;SDS011;15345;59.364;18.016;2023-05-10T04:24:52;8.02;;;5.30;;
28028;SDS011;15345;59.364;18.016;2023-05-10T04:26:11;8.13;;;5.75;;
28028;SDS011;15345;59.364;18.016;2023-05-10T04:27:30;16.75;;;5.85;;
28028;SDS011;15345;59.364;18.016;2023-05-10T04:28:49;9.82;;;5.50;;
28028;SDS011;15345;59.364;18.016;2023-05-10T04:30:08;10.93;;;5.65;;
28028;SDS011;15345;59.364;18.016;2023-05-10T04:31:28;6.28;;;5.10;;
28028;SDS011;15345;59.364;18.016;2023-05-10T04:32:47;13.80;;;5.90;;
28028;SDS011;15345;59.364;18.016;2023-05-10T04:34:06;10.25;;;5.30;;
28028;SDS011;15345;59.364;18.016;2023-05-10T04:35:25;15.05;;;5.85;;
28028;SDS011;15345;59.364;18.016;2023-05-10T04:36:44;9.00;;;4.97;;
28028;SDS011;15345;59.364;18.016;2023-05-10T04:38:03;7.43;;;5.22;;
28028;SDS011;15345;59.364;18.016;2023-05-10T04:39:22;14.82;;;5.38;;
28028;SDS011;15345;59.364;18.016;2023-05-10T04:40:41;9.02;;;4.68;;
28028;SDS011;15345;59.364;18.016;2023-05-10T04:42:00;15.05;;;5.30;;
28028;SDS011;15345;59.364;18.016;2023-05-10T04:43:21;19.70;;;5.50;;
28028;SDS011;15345;59.364;18.016;2023-05-10T04:44:40;16.90;;;5.57;;
28028;SDS011;15345;59.364;18.016;2023-05-10T04:45:59;12.40;;;5.20;;
28028;SDS011;15345;59.364;18.016;2023-05-10T04:47:18;10.25;;;5.03;;
28028;SDS011;15345;59.364;18.016;2023-05-10T04:48:37;10.40;;;4.93;;
28028;SDS011;15345;59.364;18.016;2023-05-10T04:49:56;10.88;;;5.28;;
28028;SDS011;15345;59.364;18.016;2023-05-10T04:51:15;13.38;;;4.60;;
28028;SDS011;15345;59.364;18.016;2023-05-10T04:52:34;14.98;;;4.53;;
28028;SDS011;15345;59.364;18.016;2023-05-10T04:53:53;12.88;;;5.20;;
28028;SDS011;15345;59.364;18.016;2023-05-10T04:55:12;10.77;;;4.47;;
28028;SDS011;15345;59.364;18.016;2023-05-10T04:56:31;6.78;;;4.50;;
28028;SDS011;15345;59.364;18.016;2023-05-10T04:57:50;9.90;;;4.57;;
28028;SDS011;15345;59.364;18.016;2023-05-10T04:59:08;6.53;;;4.68;;
28028;SDS011;15345;59.364;18.016;2023-05-10T05:00:28;10.50;;;4.72;;
28028;SDS011;15345;59.364;18.016;2023-05-10T05:01:47;7.15;;;4.60;;
28028;SDS011;15345;59.364;18.016;2023-05-10T05:03:06;8.77;;;4.68;;
28028;SDS011;15345;59.364;18.016;2023-05-10T05:04:25;14.85;;;4.82;;
28028;SDS011;15345;59.364;18.016;2023-05-10T05:05:44;10.35;;;5.25;;
28028;SDS011;15345;59.364;18.016;2023-05-10T05:07:03;6.22;;;4.70;;
28028;SDS011;15345;59.364;18.016;2023-05-10T05:08:22;6.82;;;4.10;;
28028;SDS011;15345;59.364;18.016;2023-05-10T05:09:42;6.55;;;4.20;;
28028;SDS011;15345;59.364;18.016;2023-05-10T05:11:01;8.80;;;4.55;;
28028;SDS011;15345;59.364;18.016;2023-05-10T05:12:20;11.20;;;4.53;;
28028;SDS011;15345;59.364;18.016;2023-05-10T05:13:39;7.50;;;4.28;;
28028;SDS011;15345;59.364;18.016;2023-05-10T05:14:58;9.27;;;4.50;;
28028;SDS011;15345;59.364;18.016;2023-05-10T05:16:17;7.32;;;4.45;;
28028;SDS011;15345;59.364;18.016;2023-05-10T05:17:36;7.65;;;4.38;;
28028;SDS011;15345;59.364;18.016;2023-05-10T05:18:55;8.82;;;4.57;;
28028;SDS011;15345;59.364;18.016;2023-05-10T05:20:15;5.40;;;3.70;;
28028;SDS011;15345;59.364;18.016;2023-05-10T05:21:34;10.43;;;4.28;;
28028;SDS011;15345;59.364;18.016;2023-05-10T05:22:52;9.77;;;4.75;;
28028;SDS011;15345;59.364;18.016;2023-05-10T05:24:11;5.82;;;3.50;;
28028;SDS011;15345;59.364;18.016;2023-05-10T05:25:31;6.35;;;4.32;;
28028;SDS011;15345;59.364;18.016;2023-05-10T05:26:50;8.43;;;3.92;;
28028;SDS011;15345;59.364;18.016;2023-05-10T05:28:09;11.63;;;3.95;;
28028;SDS011;15345;59.364;18.016;2023-05-10T05:29:28;22.33;;;4.30;;
28028;SDS011;15345;59.364;18.016;2023-05-10T05:30:47;7.80;;;3.72;;
28028;SDS011;15345;59.364;18.016;2023-05-10T05:32:06;8.02;;;3.75;;
28028;SDS011;15345;59.364;18.016;2023-05-10T05:33:26;8.68;;;4.05;;
28028;SDS011;15345;59.364;18.016;2023-05-10T05:34:45;4.22;;;3.90;;
28028;SDS011;15345;59.364;18.016;2023-05-10T05:36:05;9.32;;;3.85;;
28028;SDS011;15345;59.364;18.016;2023-05-10T05:37:24;8.43;;;4.10;;
28028;SDS011;15345;59.364;18.016;2023-05-10T05:38:43;3.95;;;3.55;;
28028;SDS011;15345;59.364;18.016;2023-05-10T05:40:02;8.27;;;4.55;;
28028;SDS011;15345;59.364;18.016;2023-05-10T05:41:22;9.50;;;4.35;;
28028;SDS011;15345;59.364;18.016;2023-05-10T05:42:40;6.05;;;3.70;;
28028;SDS011;15345;59.364;18.016;2023-05-10T05:43:59;3.95;;;3.03;;
28028;SDS011;15345;59.364;18.016;2023-05-10T05:45:18;10.65;;;4.10;;
28028;SDS011;15345;59.364;18.016;2023-05-10T05:46:37;10.50;;;3.67;;
28028;SDS011;15345;59.364;18.016;2023-05-10T05:47:56;8.75;;;3.97;;
28028;SDS011;15345;59.364;18.016;2023-05-10T05:49:15;10.43;;;4.00;;
28028;SDS011;15345;59.364;18.016;2023-05-10T05:50:35;8.10;;;4.82;;
28028;SDS011;15345;59.364;18.016;2023-05-10T05:51:54;6.28;;;3.78;;
28028;SDS011;15345;59.364;18.016;2023-05-10T05:53:13;6.90;;;3.90;;
28028;SDS011;15345;59.364;18.016;2023-05-10T05:54:32;5.57;;;3.50;;
28028;SDS011;15345;59.364;18.016;2023-05-10T05:55:54;9.77;;;3.80;;
28028;SDS011;15345;59.364;18.016;2023-05-10T05:57:14;4.55;;;3.53;;
28028;SDS011;15345;59.364;18.016;2023-05-10T05:58:33;5.70;;;3.28;;
28028;SDS011;15345;59.364;18.016;2023-05-10T05:59:52;11.00;;;4.35;;
28028;SDS011;15345;59.364;18.016;2023-05-10T06:01:11;16.25;;;4.65;;
28028;SDS011;15345;59.364;18.016;2023-05-10T06:02:29;12.77;;;4.00;;
28028;SDS011;15345;59.364;18.016;2023-05-10T06:03:48;9.30;;;3.65;;
28028;SDS011;15345;59.364;18.016;2023-05-10T06:05:08;7.50;;;3.63;;
28028;SDS011;15345;59.364;18.016;2023-05-10T06:06:27;8.02;;;3.22;;
28028;SDS011;15345;59.364;18.016;2023-05-10T06:07:47;6.10;;;3.10;;
28028;SDS011;15345;59.364;18.016;2023-05-10T06:09:06;9.40;;;3.80;;
28028;SDS011;15345;59.364;18.016;2023-05-10T06:10:25;9.63;;;3.95;;
28028;SDS011;15345;59.364;18.016;2023-05-10T06:11:44;10.13;;;3.15;;
28028;SDS011;15345;59.364;18.016;2023-05-10T06:13:02;4.80;;;3.65;;
28028;SDS011;15345;59.364;18.016;2023-05-10T06:14:22;11.18;;;3.85;;
28028;SDS011;15345;59.364;18.016;2023-05-10T06:15:40;9.32;;;3.08;;
28028;SDS011;15345;59.364;18.016;2023-05-10T06:16:59;8.02;;;3.50;;
28028;SDS011;15345;59.364;18.016;2023-05-10T06:18:18;8.40;;;3.47;;
28028;SDS011;15345;59.364;18.016;2023-05-10T06:19:37;6.90;;;3.65;;
28028;SDS011;15345;59.364;18.016;2023-05-10T06:20:56;7.72;;;3.85;;
28028;SDS011;15345;59.364;18.016;2023-05-10T06:22:15;8.15;;;3.60;;
28028;SDS011;15345;59.364;18.016;2023-05-10T06:23:33;7.93;;;3.17;;
28028;SDS011;15345;59.364;18.016;2023-05-10T06:24:52;4.93;;;3.67;;
28028;SDS011;15345;59.364;18.016;2023-05-10T06:26:11;8.88;;;3.90;;
28028;SDS011;15345;59.364;18.016;2023-05-10T06:27:31;8.63;;;3.35;;
28028;SDS011;15345;59.364;18.016;2023-05-10T06:28:50;7.40;;;3.95;;
28028;SDS011;15345;59.364;18.016;2023-05-10T06:30:09;8.18;;;3.83;;
28028;SDS011;15345;59.364;18.016;2023-05-10T06:31:29;6.78;;;3.08;;
28028;SDS011;15345;59.364;18.016;2023-05-10T06:32:48;5.15;;;3.58;;
28028;SDS011;15345;59.364;18.016;2023-05-10T06:34:07;6.18;;;3.47;;
28028;SDS011;15345;59.364;18.016;2023-05-10T06:35:27;10.55;;;3.47;;
28028;SDS011;15345;59.364;18.016;2023-05-10T06:36:46;7.10;;;3.13;;
28028;SDS011;15345;59.364;18.016;2023-05-10T06:38:05;13.07;;;3.58;;
28028;SDS011;15345;59.364;18.016;2023-05-10T06:39:24;3.70;;;3.38;;
28028;SDS011;15345;59.364;18.016;2023-05-10T06:40:43;7.53;;;3.20;;
28028;SDS011;15345;59.364;18.016;2023-05-10T06:42:01;8.05;;;3.45;;
28028;SDS011;15345;59.364;18.016;2023-05-10T06:43:21;4.55;;;3.10;;
28028;SDS011;15345;59.364;18.016;2023-05-10T06:44:40;11.60;;;3.55;;
28028;SDS011;15345;59.364;18.016;2023-05-10T06:45:59;9.52;;;3.20;;
28028;SDS011;15345;59.364;18.016;2023-05-10T06:47:18;10.25;;;3.60;;
28028;SDS011;15345;59.364;18.016;2023-05-10T06:48:37;10.32;;;3.60;;
28028;SDS011;15345;59.364;18.016;2023-05-10T06:49:56;7.82;;;3.08;;
28028;SDS011;15345;59.364;18.016;2023-05-10T06:51:15;9.23;;;3.33;;
28028;SDS011;15345;59.364;18.016;2023-05-10T06:52:34;12.52;;;3.78;;
28028;SDS011;15345;59.364;18.016;2023-05-10T06:53:53;14.85;;;4.70;;
28028;SDS011;15345;59.364;18.016;2023-05-10T06:55:12;13.70;;;4.50;;
28028;SDS011;15345;59.364;18.016;2023-05-10T06:56:31;24.63;;;6.80;;
28028;SDS011;15345;59.364;18.016;2023-05-10T06:57:50;20.63;;;6.90;;
28028;SDS011;15345;59.364;18.016;2023-05-10T06:59:09;19.38;;;4.30;;
28028;SDS011;15345;59.364;18.016;2023-05-10T07:00:28;9.88;;;4.40;;
28028;SDS011;15345;59.364;18.016;2023-05-10T07:01:47;13.77;;;5.55;;
28028;SDS011;15345;59.364;18.016;2023-05-10T07:03:06;12.10;;;3.35;;
28028;SDS011;15345;59.364;18.016;2023-05-10T07:04:25;20.92;;;6.50;;
28028;SDS011;15345;59.364;18.016;2023-05-10T07:05:44;13.05;;;5.10;;
28028;SDS011;15345;59.364;18.016;2023-05-10T07:07:03;15.25;;;3.80;;
28028;SDS011;15345;59.364;18.016;2023-05-10T07:08:22;21.38;;;7.38;;
28028;SDS011;15345;59.364;18.016;2023-05-10T07:09:41;14.48;;;5.38;;
28028;SDS011;15345;59.364;18.016;2023-05-10T07:11:01;11.02;;;3.28;;
28028;SDS011;15345;59.364;18.016;2023-05-10T07:12:22;6.40;;;3.67;;
28028;SDS011;15345;59.364;18.016;2023-05-10T07:13:41;13.30;;;3.97;;
28028;SDS011;15345;59.364;18.016;2023-05-10T07:15:02;16.92;;;3.72;;
28028;SDS011;15345;59.364;18.016;2023-05-10T07:16:21;15.00;;;4.88;;
28028;SDS011;15345;59.364;18.016;2023-05-10T07:17:40;12.93;;;4.50;;
28028;SDS011;15345;59.364;18.016;2023-05-10T07:18:59;12.65;;;4.05;;
28028;SDS011;15345;59.364;18.016;2023-05-10T07:20:18;5.70;;;3.50;;
28028;SDS011;15345;59.364;18.016;2023-05-10T07:21:37;7.82;;;4.03;;
28028;SDS011;15345;59.364;18.016;2023-05-10T07:22:56;6.72;;;4.05;;
28028;SDS011;15345;59.364;18.016;2023-05-10T07:24:15;9.93;;;3.58;;
28028;SDS011;15345;59.364;18.016;2023-05-10T07:25:34;12.68;;;4.35;;
28028;SDS011;15345;59.364;18.016;2023-05-10T07:26:53;7.95;;;3.60;;
28028;SDS011;15345;59.364;18.016;2023-05-10T07:28:13;7.72;;;3.53;;
28028;SDS011;15345;59.364;18.016;2023-05-10T07:29:32;12.80;;;3.30;;
28028;SDS011;15345;59.364;18.016;2023-05-10T07:30:51;7.60;;;3.65;;
28028;SDS011;15345;59.364;18.016;2023-05-10T07:32:10;8.63;;;3.22;;
28028;SDS011;15345;59.364;18.016;2023-05-10T07:33:29;6.43;;;3.97;;
28028;SDS011;15345;59.364;18.016;2023-05-10T07:34:48;6.72;;;3.28;;
28028;SDS011;15345;59.364;18.016;2023-05-10T07:36:07;8.32;;;3.13;;
28028;SDS011;15345;59.364;18.016;2023-05-10T07:37:26;7.35;;;3.15;;
28028;SDS011;15345;59.364;18.016;2023-05-10T07:38:45;7.50;;;3.60;;
28028;SDS011;15345;59.364;18.016;2023-05-10T07:40:04;5.78;;;3.45;;
28028;SDS011;15345;59.364;18.016;2023-05-10T07:41:23;10.93;;;3.92;;
28028;SDS011;15345;59.364;18.016;2023-05-10T07:42:42;8.95;;;3.58;;
28028;SDS011;15345;59.364;18.016;2023-05-10T07:44:01;9.20;;;4.32;;
28028;SDS011;15345;59.364;18.016;2023-05-10T07:45:20;7.97;;;3.45;;
28028;SDS011;15345;59.364;18.016;2023-05-10T07:46:39;6.13;;;3.40;;
28028;SDS011;15345;59.364;18.016;2023-05-10T07:47:58;7.15;;;2.92;;
28028;SDS011;15345;59.364;18.016;2023-05-10T07:49:17;4.70;;;3.85;;
28028;SDS011;15345;59.364;18.016;2023-05-10T07:50:36;6.32;;;2.92;;
28028;SDS011;15345;59.364;18.016;2023-05-10T07:51:55;10.23;;;4.75;;
28028;SDS011;15345;59.364;18.016;2023-05-10T07:53:14;5.47;;;3.25;;
28028;SDS011;15345;59.364;18.016;2023-05-10T07:54:33;16.25;;;3.00;;
28028;SDS011;15345;59.364;18.016;2023-05-10T07:55:54;7.53;;;3.75;;
28028;SDS011;15345;59.364;18.016;2023-05-10T07:57:13;10.00;;;3.85;;
28028;SDS011;15345;59.364;18.016;2023-05-10T07:58:34;7.10;;;3.05;;
28028;SDS011;15345;59.364;18.016;2023-05-10T07:59:52;14.18;;;3.67;;
28028;SDS011;15345;59.364;18.016;2023-05-10T08:01:11;6.05;;;3.22;;
28028;SDS011;15345;59.364;18.016;2023-05-10T08:02:30;6.53;;;3.47;;
28028;SDS011;15345;59.364;18.016;2023-05-10T08:03:49;9.30;;;4.05;;
28028;SDS011;15345;59.364;18.016;2023-05-10T08:05:09;7.82;;;3.53;;
28028;SDS011;15345;59.364;18.016;2023-05-10T08:06:28;7.80;;;3.70;;
28028;SDS011;15345;59.364;18.016;2023-05-10T08:07:48;10.93;;;3.13;;